Time;durP1;ratioP1;P1;durP2;ratioP2;P2;SDS_P1;SDS_P2;PMS_P1;PMS_P2;Temp;Humidity;BMP_temperature;BMP_pressure;BME280_temperature;BME280_humidity;BME280_pressure;Samples;Min_cycle;Max_cycle;Signal;HPM_P1;HPM_P2
2022/06/18 00:01:54;;;;;;;;;;;;;;;;;;5069128;28;19928;-71
2022/06/18 00:04:20;;;;;;;;;;;;;;;;;;5069217;28;19967;-72
2022/06/18 00:06:53;;;;;;;;;;;;;;;;;;5070090;28;19928;-61
2022/06/18 00:09:20;;;;;;;;;;;;;;;;;;5069130;28;19920;-60
2022/06/18 00:14:45;;;;;;;;;;;;;;;;;;5067776;28;19975;-50
2022/06/18 00:17:11;;;;;;;;;;;;;;;;;;5072546;28;19969;-50
2022/06/18 00:19:38;;;;;;;;;;;;;;;;;;5069027;28;19975;-48
2022/06/18 00:22:10;;;;;;;;;;;;;;;;;;5072115;28;19920;-50
2022/06/18 00:24:37;;;;;;;;;;;;;;;;;;5064254;28;20271;-52
2022/06/18 00:27:03;;;;;;;;;;;;;;;;;;5070810;28;19924;-46
2022/06/18 00:29:41;;;;;;;;;;;;;;;;;;5067827;28;19974;-45
2022/06/18 00:32:07;;;;;;;;;;;;;;;;;;5067201;28;20488;-49
2022/06/18 00:34:33;;;;;;;;;;;;;;;;;;5068459;28;19974;-46
2022/06/18 00:37:06;;;;;;;;;;;;;;;;;;5066029;28;19920;-48
2022/06/18 00:39:33;;;;;;;;;;;;;;;;;;5067781;28;20442;-49
2022/06/18 00:41:59;;;;;;;;;;;;;;;;;;5065273;28;19986;-49
2022/06/18 00:44:32;;;;;;;;;;;;;;;;;;5063628;28;19924;-46
2022/06/18 00:46:59;;;;;;;;;;;;;;;;;;5064924;28;19928;-61
2022/06/18 00:49:25;;;;;;;;;;;;;;;;;;5065047;28;21149;-50
2022/06/18 00:51:58;;;;;;;;;;;;;;;;;;5060259;28;20444;-51
2022/06/18 00:54:25;;;;;;;;;;;;;;;;;;5069650;28;19963;-51
2022/06/18 00:56:51;;;;;;;;;;;;;;;;;;5065038;28;20013;-49
2022/06/18 00:59:24;;;;;;;;;;;;;;;;;;5062460;28;19960;-50
2022/06/18 01:01:51;;;;;;;;;;;;;;;;;;5063717;28;19956;-53
2022/06/18 01:04:18;;;;;;;;;;;;;;;;;;5064771;28;19931;-58
2022/06/18 01:06:50;;;;;;;;;;;;;;;;;;5062047;28;20574;-60
2022/06/18 01:09:16;;;;;;;;;;;;;;;;;;5065939;28;19960;-49
2022/06/18 01:11:43;;;;;;;;;;;;;;;;;;5063934;28;20361;-53
2022/06/18 01:14:16;;;;;;;;;;;;;;;;;;5065114;28;20414;-49
2022/06/18 01:16:43;;;;;;;;;;;;;;;;;;5061964;28;19924;-48
2022/06/18 01:19:09;;;;;;;;;;;;;;;;;;5065470;28;19928;-52
2022/06/18 01:21:42;;;;;;;;;;;;;;;;;;5057350;28;20416;-52
2022/06/18 01:24:09;;;;;;;;;;;;;;;;;;5064692;28;19973;-61
2022/06/18 01:26:35;;;;;;;;;;;;;;;;;;5061156;28;20005;-59
2022/06/18 01:29:08;;;;;;;;;;;;;;;;;;5059712;28;19929;-61
2022/06/18 01:31:35;;;;;;;;;;;;;;;;;;5060122;28;19971;-61
2022/06/18 01:34:01;;;;;;;;;;;;;;;;;;5065688;28;19966;-61
2022/06/18 01:36:34;;;;;;;;;;;;;;;;;;5062961;28;19959;-61
2022/06/18 01:39:01;;;;;;;;;;;;;;;;;;5063032;28;20396;-61
2022/06/18 01:44:18;;;;;;;;;;;;;;;;;;5062241;28;19928;-69
2022/06/18 01:46:45;;;;;;;;;;;;;;;;;;5060001;28;19997;-61
2022/06/18 01:49:11;;;;;;;;;;;;;;;;;;5063652;28;20298;-61
2022/06/18 01:51:49;;;;;;;;;;;;;;;;;;5063156;28;20001;-61
2022/06/18 01:54:15;;;;;;;;;;;;;;;;;;5067386;28;19924;-61
2022/06/18 01:56:42;;;;;;;;;;;;;;;;;;5065479;28;19967;-61
2022/06/18 01:59:15;;;;;;;;;;;;;;;;;;5069048;28;20449;-61
2022/06/18 02:01:42;;;;;;;;;;;;;;;;;;5069439;28;20457;-58
2022/06/18 02:04:08;;;;;;;;;;;;;;;;;;5072159;28;19978;-58
2022/06/18 02:06:45;;;;;;;;;;;;;;;;;;5070110;28;20418;-70
2022/06/18 02:09:11;;;;;;;;;;;;;;;;;;5067836;28;19924;-70
2022/06/18 02:11:37;;;;;;;;;;;;;;;;;;5067981;28;19924;-70
2022/06/18 02:14:10;;;;;;;;;;;;;;;;;;5066852;28;19928;-70
2022/06/18 02:16:37;;;;;;;;;;;;;;;;;;5064898;28;19928;-71
2022/06/18 02:19:03;;;;;;;;;;;;;;;;;;5062891;28;19920;-70
2022/06/18 02:21:36;;;;;;;;;;;;;;;;;;5064077;28;19989;-58
2022/06/18 02:24:02;;;;;;;;;;;;;;;;;;5063234;28;20041;-58
2022/06/18 02:26:29;;;;;;;;;;;;;;;;;;5063510;28;19956;-58
2022/06/18 02:29:02;;;;;;;;;;;;;;;;;;5064166;28;20358;-58
2022/06/18 02:31:29;;;;;;;;;;;;;;;;;;5065074;28;20009;-58
2022/06/18 02:33:55;;;;;;;;;;;;;;;;;;5061899;28;19978;-58
2022/06/18 02:36:29;;;;;;;;;;;;;;;;;;5061638;28;20379;-58
2022/06/18 02:38:55;;;;;;;;;;;;;;;;;;5062173;28;20263;-58
2022/06/18 02:41:22;;;;;;;;;;;;;;;;;;5061521;28;19959;-57
2022/06/18 02:43:55;;;;;;;;;;;;;;;;;;5063226;28;20017;-48
2022/06/18 02:46:22;;;;;;;;;;;;;;;;;;5064698;28;19920;-53
2022/06/18 02:48:48;;;;;;;;;;;;;;;;;;5062372;28;20485;-52
2022/06/18 02:51:21;;;;;;;;;;;;;;;;;;5062544;28;20384;-52
2022/06/18 02:53:48;;;;;;;;;;;;;;;;;;5062949;28;19976;-53
2022/06/18 02:56:14;;;;;;;;;;;;;;;;;;5066524;28;19924;-51
2022/06/18 02:58:47;;;;;;;;;;;;;;;;;;5063703;28;20359;-56
2022/06/18 03:01:14;;;;;;;;;;;;;;;;;;5061280;28;19959;-60
2022/06/18 03:03:40;;;;;;;;;;;;;;;;;;5065306;28;19921;-45
2022/06/18 03:06:18;;;;;;;;;;;;;;;;;;5069332;28;19959;-47
2022/06/18 03:08:46;;;;;;;;;;;;;;;;;;5066543;28;20022;-48
2022/06/18 03:14:05;;;;;;;;;;;;;;;;;;5066130;28;20012;-47
2022/06/18 03:16:32;;;;;;;;;;;;;;;;;;5067673;28;19921;-48
2022/06/18 03:18:58;;;;;;;;;;;;;;;;;;5067668;28;19958;-47
2022/06/18 03:21:30;;;;;;;;;;;;;;;;;;5072103;28;19968;-60
2022/06/18 03:23:57;;;;;;;;;;;;;;;;;;5067911;28;19924;-61
2022/06/18 03:26:23;;;;;;;;;;;;;;;;;;5066580;28;19973;-61
2022/06/18 03:28:57;;;;;;;;;;;;;;;;;;5067359;28;19956;-60
2022/06/18 03:31:23;;;;;;;;;;;;;;;;;;5069689;28;19963;-60
2022/06/18 03:33:50;;;;;;;;;;;;;;;;;;5064073;28;20272;-60
2022/06/18 03:36:23;;;;;;;;;;;;;;;;;;5067213;28;19951;-48
2022/06/18 03:38:50;;;;;;;;;;;;;;;;;;5066636;28;20020;-56
2022/06/18 03:41:16;;;;;;;;;;;;;;;;;;5064759;28;20598;-61
2022/06/18 03:43:49;;;;;;;;;;;;;;;;;;5065290;28;19960;-60
2022/06/18 03:46:15;;;;;;;;;;;;;;;;;;5066232;28;19925;-61
2022/06/18 03:48:41;;;;;;;;;;;;;;;;;;5067785;28;19974;-61
2022/06/18 03:51:14;;;;;;;;;;;;;;;;;;5065673;28;19966;-60
2022/06/18 03:53:41;;;;;;;;;;;;;;;;;;5066088;28;19924;-61
2022/06/18 03:56:07;;;;;;;;;;;;;;;;;;5051770;28;19929;-47
2022/06/18 03:58:40;;;;;;;;;;;;;;;;;;5069683;28;19921;-56
2022/06/18 04:01:07;;;;;;;;;;;;;;;;;;5071199;28;20356;-61
2022/06/18 04:03:33;;;;;;;;;;;;;;;;;;5070710;28;19967;-61
2022/06/18 04:06:07;;;;;;;;;;;;;;;;;;5064966;28;19920;-60
2022/06/18 04:08:33;;;;;;;;;;;;;;;;;;5072764;28;20295;-61
2022/06/18 04:10:59;;;;;;;;;;;;;;;;;;5071703;28;19959;-61
2022/06/18 04:13:32;;;;;;;;;;;;;;;;;;5067664;28;19959;-60
2022/06/18 04:15:59;;;;;;;;;;;;;;;;;;5071247;28;19972;-64
2022/06/18 04:18:25;;;;;;;;;;;;;;;;;;5070428;28;19920;-45
2022/06/18 04:20:59;;;;;;;;;;;;;;;;;;5068684;28;19928;-47
2022/06/18 04:23:25;;;;;;;;;;;;;;;;;;5068685;28;19924;-47
2022/06/18 04:25:51;;;;;;;;;;;;;;;;;;5063764;28;20347;-48
2022/06/18 04:28:25;;;;;;;;;;;;;;;;;;5066549;28;19968;-45
2022/06/18 04:30:51;;;;;;;;;;;;;;;;;;5065336;28;19994;-51
2022/06/18 04:33:17;;;;;;;;;;;;;;;;;;5064999;28;19969;-52
2022/06/18 04:35:51;;;;;;;;;;;;;;;;;;5062530;28;20291;-55
2022/06/18 04:38:17;;;;;;;;;;;;;;;;;;5064949;28;19920;-63
2022/06/18 04:40:44;;;;;;;;;;;;;;;;;;5062211;28;19928;-64
2022/06/18 04:43:22;;;;;;;;;;;;;;;;;;5050129;28;20440;-63
2022/06/18 04:45:48;;;;;;;;;;;;;;;;;;5065946;28;19924;-63
2022/06/18 04:48:15;;;;;;;;;;;;;;;;;;5064132;28;19960;-63
2022/06/18 04:50:47;;;;;;;;;;;;;;;;;;5064909;28;20580;-61
2022/06/18 04:53:14;;;;;;;;;;;;;;;;;;5063916;28;19978;-63
2022/06/18 04:55:40;;;;;;;;;;;;;;;;;;5047745;28;20514;-67
2022/06/18 04:58:14;;;;;;;;;;;;;;;;;;5026376;28;19937;-45
2022/06/18 05:00:40;;;;;;;;;;;;;;;;;;5046130;28;19984;-47
2022/06/18 05:03:06;;;;;;;;;;;;;;;;;;5044748;28;20400;-48
2022/06/18 05:05:39;;;;;;;;;;;;;;;;;;5045946;28;20475;-49
2022/06/18 05:08:06;;;;;;;;;;;;;;;;;;5040325;28;20172;-49
2022/06/18 05:10:32;;;;;;;;;;;;;;;;;;5041961;28;19963;-49
2022/06/18 05:13:06;;;;;;;;;;;;;;;;;;5044486;28;20323;-49
2022/06/18 05:15:32;;;;;;;;;;;;;;;;;;5043512;28;20345;-48
2022/06/18 05:17:58;;;;;;;;;;;;;;;;;;5050465;28;19928;-45
2022/06/18 05:20:32;;;;;;;;;;;;;;;;;;5043108;28;19929;-51
2022/06/18 05:22:58;;;;;;;;;;;;;;;;;;5043295;28;20044;-48
2022/06/18 05:25:24;;;;;;;;;;;;;;;;;;5043387;28;19959;-46
2022/06/18 05:27:58;;;;;;;;;;;;;;;;;;5043821;28;19921;-51
2022/06/18 05:30:27;;;;;;;;;;;;;;;;;;5046024;28;19951;-46
2022/06/18 05:32:53;;;;;;;;;;;;;;;;;;5041845;28;19931;-61
2022/06/18 05:35:26;;;;;;;;;;;;;;;;;;5046819;28;19975;-71
2022/06/18 05:37:54;;;;;;;;;;;;;;;;;;5046009;28;19924;-72
2022/06/18 05:40:20;;;;;;;;;;;;;;;;;;5047010;28;20771;-72
2022/06/18 05:42:54;;;;;;;;;;;;;;;;;;5043426;28;20532;-70
2022/06/18 05:45:21;;;;;;;;;;;;;;;;;;5041896;28;19936;-71
2022/06/18 05:47:47;;;;;;;;;;;;;;;;;;5046272;28;19960;-72
2022/06/18 05:50:20;;;;;;;;;;;;;;;;;;5045116;28;20052;-52
2022/06/18 05:52:47;;;;;;;;;;;;;;;;;;5041893;28;19968;-71
2022/06/18 05:55:13;;;;;;;;;;;;;;;;;;5058761;28;19924;-44
2022/06/18 05:57:47;;;;;;;;;;;;;;;;;;5063819;28;19926;-45
2022/06/18 06:00:13;;;;;;;;;;;;;;;;;;5069434;28;19956;-48
2022/06/18 06:02:39;;;;;;;;;;;;;;;;;;5064574;28;19925;-47
2022/06/18 06:05:12;;;;;;;;;;;;;;;;;;5068656;28;19956;-48
2022/06/18 06:07:39;;;;;;;;;;;;;;;;;;5066066;28;19928;-48
2022/06/18 06:12:58;;;;;;;;;;;;;;;;;;5074556;28;19967;-59
2022/06/18 06:15:25;;;;;;;;;;;;;;;;;;5066318;28;19920;-58
2022/06/18 06:17:51;;;;;;;;;;;;;;;;;;5061692;28;20089;-58
2022/06/18 06:20:24;;;;;;;;;;;;;;;;;;5062300;28;19971;-58
2022/06/18 06:22:51;;;;;;;;;;;;;;;;;;5062528;28;19928;-56
2022/06/18 06:25:17;;;;;;;;;;;;;;;;;;5064453;28;19966;-58
2022/06/18 06:27:50;;;;;;;;;;;;;;;;;;5067113;28;20362;-56
2022/06/18 06:30:17;;;;;;;;;;;;;;;;;;5060588;28;19968;-44
2022/06/18 06:32:43;;;;;;;;;;;;;;;;;;5063453;28;19924;-52
2022/06/18 06:35:17;;;;;;;;;;;;;;;;;;5068234;28;19966;-48
2022/06/18 06:37:43;;;;;;;;;;;;;;;;;;5070202;28;20355;-52
2022/06/18 06:40:10;;;;;;;;;;;;;;;;;;5071237;28;20168;-49
2022/06/18 06:42:42;;;;;;;;;;;;;;;;;;5071610;28;20399;-48
2022/06/18 06:45:09;;;;;;;;;;;;;;;;;;5069968;28;19971;-46
2022/06/18 06:47:35;;;;;;;;;;;;;;;;;;5070705;28;19964;-48
2022/06/18 06:50:09;;;;;;;;;;;;;;;;;;5041702;28;20352;-49
2022/06/18 06:52:35;;;;;;;;;;;;;;;;;;5029953;28;19990;-47
2022/06/18 06:57:54;;;;;;;;;;;;;;;;;;5005852;28;19924;-47
2022/06/18 07:00:20;;;;;;;;;;;;;;;;;;5042207;28;20276;-46
2022/06/18 07:02:46;;;;;;;;;;;;;;;;;;5042871;28;19921;-46
2022/06/18 07:05:25;;;;;;;;;;;;;;;;;;5047082;28;19974;-46
2022/06/18 07:07:52;;;;;;;;;;;;;;;;;;5047146;28;19924;-71
2022/06/18 07:10:18;;;;;;;;;;;;;;;;;;5048658;28;19976;-45
2022/06/18 07:12:52;;;;;;;;;;;;;;;;;;5041961;28;20511;-49
2022/06/18 07:15:18;;;;;;;;;;;;;;;;;;5040845;28;20364;-47
2022/06/18 07:17:44;;;;;;;;;;;;;;;;;;5043619;28;19983;-49
2022/06/18 07:20:17;;;;;;;;;;;;;;;;;;5047417;28;20396;-48
2022/06/18 07:22:44;;;;;;;;;;;;;;;;;;5046985;28;19991;-51
2022/06/18 07:25:10;;;;;;;;;;;;;;;;;;5046488;28;20238;-62
2022/06/18 07:27:44;;;;;;;;;;;;;;;;;;5044909;28;20199;-58
2022/06/18 07:30:10;;;;;;;;;;;;;;;;;;5043544;28;19995;-58
2022/06/18 07:32:36;;;;;;;;;;;;;;;;;;5047532;28;20346;-58
2022/06/18 07:35:09;;;;;;;;;;;;;;;;;;5045559;28;19935;-58
2022/06/18 07:37:36;;;;;;;;;;;;;;;;;;5048965;28;19924;-58
2022/06/18 07:40:03;;;;;;;;;;;;;;;;;;5044073;28;19924;-58
2022/06/18 07:42:36;;;;;;;;;;;;;;;;;;5041167;28;20450;-58
2022/06/18 07:45:04;;;;;;;;;;;;;;;;;;5039343;28;19932;-63
2022/06/18 07:47:31;;;;;;;;;;;;;;;;;;5043585;28;19928;-49
2022/06/18 07:50:04;;;;;;;;;;;;;;;;;;5044418;28;19971;-57
2022/06/18 07:52:30;;;;;;;;;;;;;;;;;;5042405;28;19956;-57
2022/06/18 07:54:58;;;;;;;;;;;;;;;;;;5042876;28;20367;-57
2022/06/18 07:57:31;;;;;;;;;;;;;;;;;;5046602;28;19960;-56
2022/06/18 07:59:57;;;;;;;;;;;;;;;;;;5050788;28;19920;-56
2022/06/18 08:02:24;;;;;;;;;;;;;;;;;;5047612;28;19921;-57
2022/06/18 08:04:57;;;;;;;;;;;;;;;;;;5040835;28;20418;-62
2022/06/18 08:07:23;;;;;;;;;;;;;;;;;;5042579;28;20360;-57
2022/06/18 08:09:49;;;;;;;;;;;;;;;;;;5044000;28;19920;-58
2022/06/18 08:12:23;;;;;;;;;;;;;;;;;;5048011;28;20250;-55
2022/06/18 08:14:49;;;;;;;;;;;;;;;;;;5041718;28;20073;-56
2022/06/18 08:17:15;;;;;;;;;;;;;;;;;;5043543;28;19925;-57
2022/06/18 08:19:49;;;;;;;;;;;;;;;;;;5043925;28;19921;-58
2022/06/18 08:22:15;;;;;;;;;;;;;;;;;;5045580;28;19925;-67
2022/06/18 08:24:42;;;;;;;;;;;;;;;;;;5044761;28;19959;-57
2022/06/18 08:27:15;;;;;;;;;;;;;;;;;;5042069;28;20498;-53
2022/06/18 08:29:42;;;;;;;;;;;;;;;;;;5043154;28;19931;-50
2022/06/18 08:32:08;;;;;;;;;;;;;;;;;;5041732;28;19967;-52
2022/06/18 08:34:42;;;;;;;;;;;;;;;;;;5045645;28;20380;-50
2022/06/18 08:37:08;;;;;;;;;;;;;;;;;;5039971;28;19968;-49
2022/06/18 08:39:35;;;;;;;;;;;;;;;;;;5044668;28;19956;-49
2022/06/18 08:42:08;;;;;;;;;;;;;;;;;;5039971;28;19924;-61
2022/06/18 08:44:34;;;;;;;;;;;;;;;;;;5043347;28;20852;-46
2022/06/18 08:47:00;;;;;;;;;;;;;;;;;;5040156;28;20376;-49
2022/06/18 08:49:34;;;;;;;;;;;;;;;;;;5040991;28;19921;-48
2022/06/18 08:52:00;;;;;;;;;;;;;;;;;;5046037;28;20019;-50
2022/06/18 08:54:26;;;;;;;;;;;;;;;;;;5038291;28;19964;-47
2022/06/18 08:57:00;;;;;;;;;;;;;;;;;;5040609;28;20018;-51
2022/06/18 08:59:26;;;;;;;;;;;;;;;;;;5036268;28;20400;-47
2022/06/18 09:01:52;;;;;;;;;;;;;;;;;;5039337;28;19929;-57
2022/06/18 09:04:30;;;;;;;;;;;;;;;;;;5042152;28;19931;-46
2022/06/18 09:06:56;;;;;;;;;;;;;;;;;;5045588;28;19964;-48
2022/06/18 09:09:23;;;;;;;;;;;;;;;;;;5044362;28;19924;-48
2022/06/18 09:11:56;;;;;;;;;;;;;;;;;;5044957;28;20437;-53
2022/06/18 09:14:22;;;;;;;;;;;;;;;;;;5047855;28;19929;-51
2022/06/18 09:16:48;;;;;;;;;;;;;;;;;;5046476;28;19924;-50
2022/06/18 09:19:23;;;;;;;;;;;;;;;;;;5049797;28;19925;-64
2022/06/18 09:21:49;;;;;;;;;;;;;;;;;;5043209;28;20598;-58
2022/06/18 09:24:15;;;;;;;;;;;;;;;;;;5042806;28;19968;-51
2022/06/18 09:26:49;;;;;;;;;;;;;;;;;;5037182;28;19924;-49
2022/06/18 09:29:15;;;;;;;;;;;;;;;;;;5042444;28;19921;-49
2022/06/18 09:31:42;;;;;;;;;;;;;;;;;;5039924;28;19929;-51
2022/06/18 09:34:15;;;;;;;;;;;;;;;;;;5039923;28;19920;-53
2022/06/18 09:36:41;;;;;;;;;;;;;;;;;;5042179;28;19963;-50
2022/06/18 09:39:08;;;;;;;;;;;;;;;;;;5042088;28;19970;-51
2022/06/18 09:41:40;;;;;;;;;;;;;;;;;;5041112;28;20050;-64
2022/06/18 09:44:07;;;;;;;;;;;;;;;;;;5041575;28;19966;-57
2022/06/18 09:46:33;;;;;;;;;;;;;;;;;;5040769;28;20380;-55
2022/06/18 09:49:07;;;;;;;;;;;;;;;;;;5041581;28;20372;-57
2022/06/18 09:51:37;;;;;;;;;;;;;;;;;;5041663;28;20008;-58
2022/06/18 09:54:03;;;;;;;;;;;;;;;;;;5043280;28;19960;-57
2022/06/18 09:56:37;;;;;;;;;;;;;;;;;;5023340;28;19976;-57
2022/06/18 09:59:03;;;;;;;;;;;;;;;;;;5022842;28;19978;-59
2022/06/18 10:01:29;;;;;;;;;;;;;;;;;;5024206;28;19932;-52
2022/06/18 10:06:57;;;;;;;;;;;;;;;;;;5022952;28;20304;-49
2022/06/18 10:09:35;;;;;;;;;;;;;;;;;;5021445;28;19936;-46
2022/06/18 10:12:02;;;;;;;;;;;;;;;;;;5022642;28;20039;-49
2022/06/18 10:14:28;;;;;;;;;;;;;;;;;;5022323;28;20019;-50
2022/06/18 10:17:02;;;;;;;;;;;;;;;;;;5024158;28;19991;-49
2022/06/18 10:19:28;;;;;;;;;;;;;;;;;;5017597;28;20111;-51
2022/06/18 10:21:54;;;;;;;;;;;;;;;;;;5024359;28;19991;-63
2022/06/18 10:24:28;;;;;;;;;;;;;;;;;;5021280;28;19993;-62
2022/06/18 10:26:54;;;;;;;;;;;;;;;;;;5023995;28;20007;-63
2022/06/18 10:29:20;;;;;;;;;;;;;;;;;;5017666;28;20014;-63
2022/06/18 10:31:54;;;;;;;;;;;;;;;;;;5018670;28;20459;-62
2022/06/18 10:34:20;;;;;;;;;;;;;;;;;;5024046;28;19921;-62
2022/06/18 10:36:46;;;;;;;;;;;;;;;;;;5025849;28;19925;-48
2022/06/18 10:39:20;;;;;;;;;;;;;;;;;;5020572;28;19956;-64
2022/06/18 10:41:46;;;;;;;;;;;;;;;;;;5024073;28;19970;-61
2022/06/18 10:44:12;;;;;;;;;;;;;;;;;;5019337;28;19981;-60
2022/06/18 10:46:46;;;;;;;;;;;;;;;;;;5020459;28;19925;-60
2022/06/18 10:49:13;;;;;;;;;;;;;;;;;;5018162;28;19967;-60
2022/06/18 10:51:39;;;;;;;;;;;;;;;;;;5025041;28;19967;-60
2022/06/18 10:54:20;;;;;;;;;;;;;;;;;;5018942;28;20000;-60
2022/06/18 10:56:47;;;;;;;;;;;;;;;;;;5019559;28;19956;-49
2022/06/18 10:59:20;;;;;;;;;;;;;;;;;;5019667;28;19971;-59
2022/06/18 11:01:46;;;;;;;;;;;;;;;;;;5026734;28;19928;-58
2022/06/18 11:04:13;;;;;;;;;;;;;;;;;;5002917;28;20304;-57
2022/06/18 11:06:46;;;;;;;;;;;;;;;;;;5019915;28;19929;-58
2022/06/18 11:09:12;;;;;;;;;;;;;;;;;;5021727;28;20015;-57
2022/06/18 11:11:38;;;;;;;;;;;;;;;;;;5024982;28;19921;-58
2022/06/18 11:14:12;;;;;;;;;;;;;;;;;;5021039;28;20249;-61
2022/06/18 11:16:41;;;;;;;;;;;;;;;;;;5025406;28;19921;-61
2022/06/18 11:19:08;;;;;;;;;;;;;;;;;;5025818;28;20436;-50
2022/06/18 11:21:43;;;;;;;;;;;;;;;;;;5020069;28;20380;-50
2022/06/18 11:24:09;;;;;;;;;;;;;;;;;;5024633;28;20396;-51
2022/06/18 11:26:36;;;;;;;;;;;;;;;;;;5031017;28;19925;-54
2022/06/18 11:29:09;;;;;;;;;;;;;;;;;;5027785;28;19925;-55
2022/06/18 11:31:35;;;;;;;;;;;;;;;;;;5028094;28;19933;-50
2022/06/18 11:34:01;;;;;;;;;;;;;;;;;;5029354;28;19975;-49
2022/06/18 11:36:35;;;;;;;;;;;;;;;;;;5030182;28;20027;-51
2022/06/18 11:39:03;;;;;;;;;;;;;;;;;;5027376;28;20507;-49
2022/06/18 11:41:29;;;;;;;;;;;;;;;;;;5026754;28;19925;-51
2022/06/18 11:44:02;;;;;;;;;;;;;;;;;;5028240;28;19925;-49
2022/06/18 11:46:28;;;;;;;;;;;;;;;;;;5026915;28;19929;-51
2022/06/18 11:48:54;;;;;;;;;;;;;;;;;;5026582;28;19928;-50
2022/06/18 11:51:28;;;;;;;;;;;;;;;;;;5028450;28;19968;-52
2022/06/18 11:53:54;;;;;;;;;;;;;;;;;;5027721;28;19949;-57
2022/06/18 11:56:20;;;;;;;;;;;;;;;;;;5042161;28;20009;-60
2022/06/18 11:58:58;;;;;;;;;;;;;;;;;;5045518;28;19924;-61
2022/06/18 12:01:24;;;;;;;;;;;;;;;;;;5042712;28;19921;-60
2022/06/18 12:03:50;;;;;;;;;;;;;;;;;;5044306;28;19968;-60
2022/06/18 12:06:24;;;;;;;;;;;;;;;;;;5044470;28;19968;-59
2022/06/18 12:09:10;;;;;;;;;;;;;;;;;;5046656;28;19920;-60
2022/06/18 12:11:43;;;;;;;;;;;;;;;;;;5044000;28;19952;-48
2022/06/18 12:14:09;;;;;;;;;;;;;;;;;;5045712;28;19924;-50
2022/06/18 12:16:36;;;;;;;;;;;;;;;;;;5044336;28;19935;-60
2022/06/18 12:19:10;;;;;;;;;;;;;;;;;;5045223;28;20019;-60
2022/06/18 12:21:36;;;;;;;;;;;;;;;;;;5044866;28;19964;-60
2022/06/18 12:24:03;;;;;;;;;;;;;;;;;;5045404;28;20022;-60
2022/06/18 12:26:36;;;;;;;;;;;;;;;;;;5046228;28;19979;-60
2022/06/18 12:29:02;;;;;;;;;;;;;;;;;;5044273;28;19928;-60
2022/06/18 12:31:28;;;;;;;;;;;;;;;;;;5045322;28;19939;-55
2022/06/18 12:34:02;;;;;;;;;;;;;;;;;;5047411;28;19983;-50
2022/06/18 12:36:28;;;;;;;;;;;;;;;;;;5047553;28;20365;-53
2022/06/18 12:38:54;;;;;;;;;;;;;;;;;;5051646;28;19972;-48
2022/06/18 12:41:38;;;;;;;;;;;;;;;;;;5046557;28;19924;-48
2022/06/18 12:44:05;;;;;;;;;;;;;;;;;;5051345;28;19928;-53
2022/06/18 12:46:38;;;;;;;;;;;;;;;;;;5047843;28;20376;-49
2022/06/18 12:49:04;;;;;;;;;;;;;;;;;;5047040;28;20418;-71
2022/06/18 12:51:30;;;;;;;;;;;;;;;;;;5046007;28;20341;-49
2022/06/18 12:54:05;;;;;;;;;;;;;;;;;;5047234;28;19925;-53
2022/06/18 12:56:31;;;;;;;;;;;;;;;;;;5050177;28;19974;-54
2022/06/18 12:58:58;;;;;;;;;;;;;;;;;;5049619;28;19966;-52
2022/06/18 13:01:31;;;;;;;;;;;;;;;;;;5048114;28;19924;-52
2022/06/18 13:03:57;;;;;;;;;;;;;;;;;;5050639;28;20425;-52
2022/06/18 13:06:23;;;;;;;;;;;;;;;;;;5043991;28;19966;-48
2022/06/18 13:08:57;;;;;;;;;;;;;;;;;;5048152;28;19924;-50
2022/06/18 13:11:23;;;;;;;;;;;;;;;;;;5042995;28;20419;-60
2022/06/18 13:13:52;;;;;;;;;;;;;;;;;;5051921;28;19921;-55
2022/06/18 13:16:26;;;;;;;;;;;;;;;;;;5044459;28;20005;-54
2022/06/18 13:18:52;;;;;;;;;;;;;;;;;;5048657;28;19924;-55
2022/06/18 13:21:18;;;;;;;;;;;;;;;;;;5048753;28;19969;-54
2022/06/18 13:29:29;;;;;;;;;;;;;;;;;;5046543;28;19952;-47
2022/06/18 13:31:55;;;;;;;;;;;;;;;;;;5052470;28;19921;-59
2022/06/18 13:34:21;;;;;;;;;;;;;;;;;;5047347;28;20364;-59
2022/06/18 13:36:55;;;;;;;;;;;;;;;;;;5047138;28;20007;-59
2022/06/18 13:39:21;;;;;;;;;;;;;;;;;;5047104;28;19974;-59
2022/06/18 13:41:48;;;;;;;;;;;;;;;;;;5040369;28;19971;-60
2022/06/18 13:44:21;;;;;;;;;;;;;;;;;;5040102;28;20392;-60
2022/06/18 13:46:47;;;;;;;;;;;;;;;;;;5041482;28;19920;-58
2022/06/18 13:49:13;;;;;;;;;;;;;;;;;;5042581;28;19986;-59
2022/06/18 13:51:47;;;;;;;;;;;;;;;;;;5040125;28;19964;-51
2022/06/18 13:54:13;;;;;;;;;;;;;;;;;;5042474;28;19924;-49
2022/06/18 13:56:39;;;;;;;;;;;;;;;;;;5040721;28;20406;-49
2022/06/18 13:59:13;;;;;;;;;;;;;;;;;;5045122;28;19952;-45
2022/06/18 14:01:39;;;;;;;;;;;;;;;;;;5040242;28;20413;-49
2022/06/18 14:04:06;;;;;;;;;;;;;;;;;;5043710;28;20019;-48
2022/06/18 14:06:40;;;;;;;;;;;;;;;;;;5041720;28;19959;-48
2022/06/18 14:09:06;;;;;;;;;;;;;;;;;;5044080;28;19924;-52
2022/06/18 14:11:32;;;;;;;;;;;;;;;;;;5041769;28;20367;-54
2022/06/18 14:14:06;;;;;;;;;;;;;;;;;;5046189;28;20092;-52
2022/06/18 14:16:32;;;;;;;;;;;;;;;;;;5039582;28;19924;-54
2022/06/18 14:18:58;;;;;;;;;;;;;;;;;;5025430;28;19921;-54
2022/06/18 14:21:34;;;;;;;;;;;;;;;;;;5040266;28;20388;-52
2022/06/18 14:24:00;;;;;;;;;;;;;;;;;;5041940;28;19927;-53
2022/06/18 14:26:26;;;;;;;;;;;;;;;;;;5042620;28;19968;-60
2022/06/18 14:29:00;;;;;;;;;;;;;;;;;;5040547;28;19963;-47
2022/06/18 14:31:26;;;;;;;;;;;;;;;;;;5042508;28;19921;-44
2022/06/18 14:33:52;;;;;;;;;;;;;;;;;;5044509;28;19921;-44
2022/06/18 14:36:26;;;;;;;;;;;;;;;;;;5043357;28;19979;-45
2022/06/18 14:38:52;;;;;;;;;;;;;;;;;;5047661;28;19921;-44
2022/06/18 14:41:37;;;;;;;;;;;;;;;;;;5043413;28;20277;-46
2022/06/18 14:44:12;;;;;;;;;;;;;;;;;;5044043;28;20361;-60
2022/06/18 14:46:39;;;;;;;;;;;;;;;;;;5044437;28;20276;-50
2022/06/18 14:49:05;;;;;;;;;;;;;;;;;;5043992;28;19925;-73
2022/06/18 14:51:38;;;;;;;;;;;;;;;;;;5042270;28;19921;-73
2022/06/18 14:54:04;;;;;;;;;;;;;;;;;;5041267;28;20689;-72
2022/06/18 14:56:30;;;;;;;;;;;;;;;;;;5040796;28;19987;-72
2022/06/18 14:59:04;;;;;;;;;;;;;;;;;;5044964;28;19974;-72
2022/06/18 15:01:30;;;;;;;;;;;;;;;;;;5041395;28;20017;-72
2022/06/18 15:03:57;;;;;;;;;;;;;;;;;;5046562;28;19928;-72
2022/06/18 15:06:30;;;;;;;;;;;;;;;;;;5043492;28;19952;-50
2022/06/18 15:08:56;;;;;;;;;;;;;;;;;;5047667;28;19956;-55
2022/06/18 15:11:22;;;;;;;;;;;;;;;;;;5046589;28;19920;-53
2022/06/18 15:13:56;;;;;;;;;;;;;;;;;;5039538;28;19972;-53
2022/06/18 15:18:59;;;;;;;;;;;;;;;;;;5042282;28;19924;-53
2022/06/18 15:22:27;;;;;;;;;;;;;;;;;;5045618;28;19929;-61
2022/06/18 15:24:25;;;;;;;;;;;;;;;;;;5036435;28;19974;-50
2022/06/18 15:26:59;;;;;;;;;;;;;;;;;;5040913;28;19928;-61
2022/06/18 15:29:25;;;;;;;;;;;;;;;;;;5050472;28;19924;-62
2022/06/18 15:31:51;;;;;;;;;;;;;;;;;;5051204;28;19924;-61
2022/06/18 15:34:31;;;;;;;;;;;;;;;;;;5049565;28;19924;-62
2022/06/18 15:36:57;;;;;;;;;;;;;;;;;;5049827;28;19995;-62
2022/06/18 15:39:28;;;;;;;;;;;;;;;;;;5049751;28;19921;-62
2022/06/18 15:42:01;;;;;;;;;;;;;;;;;;5045921;28;19921;-49
2022/06/18 15:44:27;;;;;;;;;;;;;;;;;;5044415;28;19956;-49
2022/06/18 15:46:54;;;;;;;;;;;;;;;;;;5044561;28;19932;-48
2022/06/18 15:49:27;;;;;;;;;;;;;;;;;;5044661;28;19967;-46
2022/06/18 15:51:53;;;;;;;;;;;;;;;;;;5043331;28;20177;-46
2022/06/18 15:54:19;;;;;;;;;;;;;;;;;;5046749;28;19960;-47
2022/06/18 15:56:59;;;;;;;;;;;;;;;;;;5039297;28;20387;-45
2022/06/18 15:59:26;;;;;;;;;;;;;;;;;;5044085;28;19925;-69
2022/06/18 16:01:52;;;;;;;;;;;;;;;;;;5046608;28;19924;-48
2022/06/18 16:04:26;;;;;;;;;;;;;;;;;;5041269;28;19979;-51
2022/06/18 16:06:52;;;;;;;;;;;;;;;;;;5045663;28;19971;-53
2022/06/18 16:09:24;;;;;;;;;;;;;;;;;;5044163;28;20461;-53
2022/06/18 16:11:57;;;;;;;;;;;;;;;;;;5042991;28;19933;-52
2022/06/18 16:14:24;;;;;;;;;;;;;;;;;;5047011;28;20368;-52
2022/06/18 16:16:51;;;;;;;;;;;;;;;;;;5045024;28;19983;-52
2022/06/18 16:19:24;;;;;;;;;;;;;;;;;;5045925;28;20317;-51
2022/06/18 16:22:10;;;;;;;;;;;;;;;;;;5044680;28;20443;-62
2022/06/18 16:24:44;;;;;;;;;;;;;;;;;;5044810;28;21862;-53
2022/06/18 16:27:10;;;;;;;;;;;;;;;;;;5044014;28;19972;-51
2022/06/18 16:29:37;;;;;;;;;;;;;;;;;;5045502;28;19964;-50
2022/06/18 16:32:10;;;;;;;;;;;;;;;;;;5046201;28;19924;-53
2022/06/18 16:34:48;;;;;;;;;;;;;;;;;;5044297;28;19921;-52
2022/06/18 16:37:21;;;;;;;;;;;;;;;;;;5044861;28;19986;-51
2022/06/18 16:39:47;;;;;;;;;;;;;;;;;;5045241;28;19967;-58
2022/06/18 16:42:13;;;;;;;;;;;;;;;;;;5044092;28;19972;-64
2022/06/18 16:44:47;;;;;;;;;;;;;;;;;;5045943;28;20372;-62
2022/06/18 16:47:13;;;;;;;;;;;;;;;;;;5044069;28;19974;-64
2022/06/18 16:49:39;;;;;;;;;;;;;;;;;;5045130;28;19924;-63
2022/06/18 16:52:13;;;;;;;;;;;;;;;;;;5045750;28;19964;-63
2022/06/18 16:54:39;;;;;;;;;;;;;;;;;;5043876;28;20118;-63
2022/06/18 16:57:07;;;;;;;;;;;;;;;;;;5045235;28;19925;-63
2022/06/18 16:59:40;;;;;;;;;;;;;;;;;;5046167;28;20017;-48
2022/06/18 17:02:06;;;;;;;;;;;;;;;;;;5046318;28;20275;-49
2022/06/18 17:04:32;;;;;;;;;;;;;;;;;;5045585;28;19967;-52
2022/06/18 17:07:06;;;;;;;;;;;;;;;;;;5048351;28;19921;-51
2022/06/18 17:09:33;;;;;;;;;;;;;;;;;;5040319;28;20053;-53
2022/06/18 17:11:59;;;;;;;;;;;;;;;;;;5037912;28;20552;-53
2022/06/18 17:14:33;;;;;;;;;;;;;;;;;;5041975;28;20302;-53
2022/06/18 17:35:38;;;;;;;;;;;;;;;;;;5016024;28;20242;-48
2022/06/18 17:38:12;;;;;;;;;;;;;;;;;;5011313;28;19972;-57
2022/06/18 17:40:39;;;;;;;;;;;;;;;;;;5003768;28;19991;-52
2022/06/18 17:43:05;;;;;;;;;;;;;;;;;;5009283;28;20044;-57